Time;durP1;ratioP1;P1;durP2;ratioP2;P2;SDS_P1;SDS_P2;PMS_P1;PMS_P2;Temp;Humidity;BMP_temperature;BMP_pressure;BME280_temperature;BME280_humidity;BME280_pressure;Samples;Min_cycle;Max_cycle;Signal;HPM_P1;HPM_P2
2022/10/12 00:00:49;;;;;;;3.38;0.70;;;23.60;40.60;;;;;;5067819;28;20049;-49
2022/10/12 00:03:17;;;;;;;0.98;0.30;;;23.50;40.50;;;;;;5067969;28;20052;-45
2022/10/12 00:05:45;;;;;;;2.58;0.50;;;23.50;40.60;;;;;;5067963;28;20041;-46
2022/10/12 00:08:12;;;;;;;2.47;0.82;;;23.50;40.60;;;;;;5067964;28;20046;-44
2022/10/12 00:10:41;;;;;;;1.02;0.50;;;23.50;40.70;;;;;;5067717;28;20051;-44
2022/10/12 00:13:08;;;;;;;1.88;1.20;;;23.50;40.70;;;;;;5067864;28;20040;-45
2022/10/12 00:15:37;;;;;;;1.77;0.43;;;23.50;40.70;;;;;;5067595;28;20044;-46
2022/10/12 00:18:04;;;;;;;1.92;0.30;;;23.50;40.70;;;;;;5067620;28;20616;-45
2022/10/12 00:20:31;;;;;;;1.40;0.45;;;23.50;40.80;;;;;;5067620;28;20048;-45
2022/10/12 00:22:59;;;;;;;2.25;0.50;;;23.50;40.80;;;;;;5066876;28;20052;-45
2022/10/12 00:25:27;;;;;;;3.03;0.52;;;23.50;40.80;;;;;;5067195;28;20078;-46
2022/10/12 00:27:53;;;;;;;2.35;0.65;;;23.50;40.90;;;;;;5067212;28;20131;-45
2022/10/12 00:30:21;;;;;;;1.05;0.65;;;23.50;40.90;;;;;;5067340;28;20048;-44
2022/10/12 00:32:48;;;;;;;2.00;0.20;;;23.50;40.90;;;;;;5067431;28;20072;-46
2022/10/12 00:35:15;;;;;;;2.05;0.40;;;23.40;40.90;;;;;;5067599;28;20054;-45
2022/10/12 00:37:42;;;;;;;2.53;0.73;;;23.40;40.90;;;;;;5066095;28;20136;-45
2022/10/12 00:40:12;;;;;;;2.75;0.30;;;23.40;41.00;;;;;;5066778;28;20127;-46
2022/10/12 00:42:39;;;;;;;1.42;0.50;;;23.40;41.00;;;;;;5066474;28;20045;-47
2022/10/12 00:45:09;;;;;;;2.47;0.30;;;23.40;41.00;;;;;;5067329;28;20036;-45
2022/10/12 00:47:37;;;;;;;0.98;0.50;;;23.40;41.00;;;;;;5067038;28;20045;-45
2022/10/12 00:50:10;;;;;;;1.88;0.30;;;23.40;41.00;;;;;;5067191;28;20043;-46
2022/10/12 00:52:44;;;;;;;4.32;0.70;;;23.40;41.10;;;;;;5067443;28;20045;-45
2022/10/12 00:55:17;;;;;;;1.48;0.38;;;23.30;41.10;;;;;;5066921;28;20306;-46
2022/10/12 00:57:45;;;;;;;2.20;0.43;;;23.30;41.10;;;;;;5066550;28;20773;-45
2022/10/12 01:00:12;;;;;;;1.50;0.50;;;23.30;41.00;;;;;;5066722;28;20458;-44
2022/10/12 01:02:42;;;;;;;2.00;0.73;;;23.30;41.00;;;;;;5065680;28;20102;-45
2022/10/12 01:05:11;;;;;;;1.55;0.20;;;23.30;41.00;;;;;;5067163;28;20127;-44
2022/10/12 01:07:38;;;;;;;0.50;0.20;;;23.30;41.00;;;;;;5060406;28;20155;-45
2022/10/12 01:10:06;;;;;;;1.42;0.13;;;23.30;41.00;;;;;;5066933;28;20048;-45
2022/10/12 01:12:35;;;;;;;1.05;0.20;;;23.30;41.00;;;;;;5066634;28;20044;-48
2022/10/12 01:15:03;;;;;;;1.77;0.68;;;23.30;41.00;;;;;;5066829;28;20116;-48
2022/10/12 01:17:38;;;;;;;1.85;0.35;;;23.30;41.00;;;;;;5066370;28;20100;-45
2022/10/12 01:20:43;;;;;;;1.55;0.38;;;23.30;41.60;;;;;;5066935;28;20182;-45
2022/10/12 01:23:55;;;;;;;0.55;0.20;;;23.30;41.00;;;;;;5041248;28;20424;-48
2022/10/12 01:27:01;;;;;;;1.52;0.20;;;23.30;41.00;;;;;;5020219;28;20048;-44
2022/10/12 01:30:11;;;;;;;0.68;0.30;;;23.30;41.00;;;;;;5006758;28;20042;-46
2022/10/12 01:32:54;;;;;;;2.00;0.22;;;23.20;41.10;;;;;;5024230;28;20680;-45
2022/10/12 01:35:28;;;;;;;1.52;0.15;;;23.20;41.20;;;;;;5017837;28;20050;-45
2022/10/12 01:38:03;;;;;;;1.77;0.35;;;23.20;41.20;;;;;;5024794;28;20128;-45
2022/10/12 01:40:36;;;;;;;2.45;0.40;;;23.20;41.20;;;;;;5024231;28;20081;-47
2022/10/12 01:43:03;;;;;;;1.55;0.15;;;23.20;41.20;;;;;;5026371;28;20341;-44
2022/10/12 01:45:30;;;;;;;0.82;0.30;;;23.20;41.20;;;;;;5027173;28;20050;-46
2022/10/12 01:47:58;;;;;;;2.13;0.30;;;23.20;41.10;;;;;;5027721;28;20137;-46
2022/10/12 01:50:36;;;;;;;2.00;0.30;;;23.10;41.10;;;;;;5023461;28;20049;-46
2022/10/12 01:53:16;;;;;;;1.33;0.30;;;23.20;41.20;;;;;;5021551;28;20105;-48
2022/10/12 01:55:50;;;;;;;0.90;0.43;;;23.20;41.20;;;;;;5021912;28;20963;-45
2022/10/12 01:58:42;;;;;;;0.65;0.20;;;23.10;41.10;;;;;;5064353;28;20061;-46
2022/10/12 02:01:19;;;;;;;1.10;0.22;;;23.10;41.10;;;;;;5052819;28;20055;-45
2022/10/12 02:03:54;;;;;;;0.73;0.17;;;23.10;41.10;;;;;;5070230;28;20572;-45
2022/10/12 02:06:24;;;;;;;0.82;0.20;;;23.10;41.10;;;;;;5064377;28;20037;-50
2022/10/12 02:09:00;;;;;;;0.85;0.70;;;23.10;41.00;;;;;;5070014;28;20575;-45
2022/10/12 02:11:28;;;;;;;0.40;0.13;;;23.10;41.10;;;;;;5069535;28;20040;-46
2022/10/12 02:14:01;;;;;;;2.60;0.73;;;23.10;41.00;;;;;;5070018;28;20055;-46
2022/10/12 02:16:34;;;;;;;1.70;0.20;;;23.10;41.00;;;;;;5070068;28;20126;-44
2022/10/12 02:19:06;;;;;;;0.75;0.43;;;23.10;41.00;;;;;;5069692;28;20037;-45
2022/10/12 02:21:34;;;;;;;0.98;0.32;;;23.10;41.10;;;;;;5070137;28;20110;-45
2022/10/12 02:24:07;;;;;;;0.28;0.10;;;23.10;41.10;;;;;;5069896;28;20028;-44
2022/10/12 02:26:37;;;;;;;0.65;0.20;;;23.10;41.20;;;;;;5070040;28;20072;-45
2022/10/12 02:29:09;;;;;;;0.60;0.20;;;23.10;41.20;;;;;;5069419;28;20481;-45
2022/10/12 02:31:42;;;;;;;2.08;1.10;;;23.10;41.20;;;;;;5069552;28;20127;-46
2022/10/12 02:34:14;;;;;;;2.35;0.20;;;23.10;41.30;;;;;;5069486;28;20564;-45
2022/10/12 02:36:48;;;;;;;0.88;0.20;;;23.00;41.30;;;;;;5063521;28;20044;-44
2022/10/12 02:39:21;;;;;;;2.35;0.47;;;23.10;41.30;;;;;;5064044;28;20072;-45
2022/10/12 02:41:50;;;;;;;1.73;0.20;;;23.00;41.30;;;;;;5069573;28;20131;-45
2022/10/12 02:44:22;;;;;;;0.70;0.10;;;23.00;41.30;;;;;;5069412;28;20127;-45
2022/10/12 02:46:51;;;;;;;1.15;0.32;;;23.00;41.40;;;;;;5069398;28;20044;-45
2022/10/12 02:49:22;;;;;;;1.50;0.47;;;23.00;41.40;;;;;;5069738;28;20040;-45
2022/10/12 02:51:49;;;;;;;1.15;0.52;;;23.00;41.40;;;;;;5069295;28;20044;-47
2022/10/12 02:54:16;;;;;;;1.15;0.47;;;23.00;41.40;;;;;;5068781;28;20063;-47
2022/10/12 02:56:44;;;;;;;2.33;0.30;;;23.00;41.40;;;;;;5069270;28;20076;-45
2022/10/12 02:59:11;;;;;;;0.98;0.45;;;23.00;41.40;;;;;;5069290;28;20052;-46
2022/10/12 03:01:38;;;;;;;0.68;0.35;;;23.00;42.10;;;;;;5062298;28;20041;-47
2022/10/12 03:04:06;;;;;;;2.85;0.45;;;23.00;41.50;;;;;;5069042;28;20055;-47
2022/10/12 03:06:34;;;;;;;2.10;0.20;;;23.00;41.50;;;;;;5069270;28;20058;-47
2022/10/12 03:09:01;;;;;;;0.50;0.30;;;22.90;41.40;;;;;;5069071;28;20044;-46
2022/10/12 03:11:28;;;;;;;0.50;0.47;;;22.90;41.40;;;;;;5068951;28;20040;-45
2022/10/12 03:13:56;;;;;;;1.25;0.30;;;22.90;41.50;;;;;;5068858;28;20040;-48
2022/10/12 03:16:23;;;;;;;1.05;0.22;;;22.90;41.50;;;;;;5069544;28;20041;-47
2022/10/12 03:18:51;;;;;;;3.63;0.77;;;22.90;41.50;;;;;;5068640;28;20047;-46
2022/10/12 03:21:18;;;;;;;2.08;0.30;;;22.90;41.50;;;;;;5068641;28;20045;-46
2022/10/12 03:23:46;;;;;;;3.80;0.60;;;22.90;41.50;;;;;;5069016;28;20079;-47
2022/10/12 03:26:13;;;;;;;0.55;0.20;;;22.90;41.50;;;;;;5068528;28;20080;-46
2022/10/12 03:28:40;;;;;;;2.40;0.28;;;22.90;41.50;;;;;;5068434;28;20052;-48
2022/10/12 03:31:07;;;;;;;2.38;0.17;;;22.90;41.50;;;;;;5068630;28;20067;-47
2022/10/12 03:33:34;;;;;;;1.15;0.20;;;22.90;41.50;;;;;;5069027;28;20037;-48
2022/10/12 03:36:01;;;;;;;1.45;0.20;;;22.90;41.50;;;;;;5069003;28;20037;-49
2022/10/12 03:38:28;;;;;;;1.00;0.13;;;22.90;41.50;;;;;;5069841;28;20064;-46
2022/10/12 03:40:57;;;;;;;3.28;0.47;;;22.90;41.50;;;;;;5068062;28;20048;-45
2022/10/12 03:43:24;;;;;;;1.25;0.35;;;22.90;41.40;;;;;;5068372;28;20075;-46
2022/10/12 03:45:51;;;;;;;2.35;0.20;;;22.80;41.40;;;;;;5068737;28;20075;-46
2022/10/12 03:48:18;;;;;;;0.40;0.30;;;22.80;41.50;;;;;;5068198;28;20059;-46
2022/10/12 03:50:49;;;;;;;0.68;0.20;;;22.80;41.50;;;;;;5061511;28;20123;-43
2022/10/12 03:53:16;;;;;;;3.55;0.30;;;22.80;41.50;;;;;;5066478;28;20127;-45
2022/10/12 03:55:43;;;;;;;1.30;0.57;;;22.80;41.50;;;;;;5067889;28;20044;-45
2022/10/12 03:58:12;;;;;;;1.38;0.10;;;22.80;41.50;;;;;;5065291;28;20051;-45
2022/10/12 04:00:39;;;;;;;1.10;0.20;;;22.80;41.50;;;;;;5067466;28;20588;-45
2022/10/12 04:03:06;;;;;;;1.25;0.10;;;22.80;41.50;;;;;;5067417;28;20040;-45
2022/10/12 04:05:33;;;;;;;1.80;0.20;;;22.80;41.50;;;;;;5068070;28;20568;-46
2022/10/12 04:08:01;;;;;;;2.47;0.13;;;22.80;41.50;;;;;;5068283;28;20777;-45
2022/10/12 04:10:28;;;;;;;2.85;0.20;;;22.80;41.50;;;;;;5067583;28;20063;-45
2022/10/12 04:12:55;;;;;;;2.92;0.20;;;22.80;41.50;;;;;;5062859;28;20033;-45
2022/10/12 04:15:23;;;;;;;1.02;0.28;;;22.80;41.50;;;;;;5067062;28;20047;-47
2022/10/12 04:17:50;;;;;;;3.22;0.20;;;22.80;42.10;;;;;;5067975;28;20060;-45
2022/10/12 04:20:17;;;;;;;0.60;0.10;;;22.80;41.50;;;;;;5063456;28;20047;-49
2022/10/12 04:22:44;;;;;;;2.90;0.32;;;22.80;41.50;;;;;;5066718;28;20058;-48
2022/10/12 04:25:12;;;;;;;1.00;0.15;;;22.90;41.80;;;;;;5066913;28;20040;-47
2022/10/12 04:27:39;;;;;;;1.77;0.20;;;22.90;41.90;;;;;;5066313;28;20040;-49
2022/10/12 04:30:07;;;;;;;3.33;0.30;;;22.90;42.00;;;;;;5065770;28;20051;-46
2022/10/12 04:32:35;;;;;;;1.20;0.10;;;23.00;42.10;;;;;;5071696;28;20761;-45
2022/10/12 04:35:02;;;;;;;5.25;0.40;;;23.10;42.10;;;;;;5067167;28;20083;-46
2022/10/12 04:37:29;;;;;;;1.30;0.10;;;23.10;42.10;;;;;;5067104;28;20508;-51
2022/10/12 04:39:57;;;;;;;2.83;0.28;;;23.20;42.10;;;;;;5067009;28;20091;-45
2022/10/12 04:42:24;;;;;;;2.03;0.20;;;23.30;42.10;;;;;;5067139;28;20041;-49
2022/10/12 04:44:51;;;;;;;2.60;0.10;;;23.50;42.00;;;;;;5061293;28;20127;-46
2022/10/12 04:47:18;;;;;;;1.75;0.52;;;23.50;41.90;;;;;;5064367;28;20558;-48
2022/10/12 04:49:46;;;;;;;3.65;0.28;;;23.70;41.80;;;;;;5060476;28;20115;-49
2022/10/12 04:52:13;;;;;;;0.93;0.40;;;23.80;41.70;;;;;;5060704;28;20509;-51
2022/10/12 04:54:40;;;;;;;1.77;0.17;;;23.80;41.60;;;;;;5066839;28;20147;-51
2022/10/12 04:57:07;;;;;;;3.97;1.65;;;23.90;41.50;;;;;;5066335;28;20051;-53
2022/10/12 04:59:34;;;;;;;8.35;1.42;;;24.10;41.40;;;;;;5066286;28;20059;-48
2022/10/12 05:02:01;;;;;;;22.02;1.08;;;24.10;41.30;;;;;;5066155;28;20037;-48
2022/10/12 05:04:28;;;;;;;5.07;0.45;;;24.30;41.20;;;;;;5049887;28;20048;-49
2022/10/12 05:06:57;;;;;;;8.63;0.22;;;24.30;41.10;;;;;;5063212;28;20036;-52
2022/10/12 05:09:24;;;;;;;0.82;0.30;;;24.40;40.90;;;;;;5065511;28;20179;-48
2022/10/12 05:11:51;;;;;;;2.38;0.35;;;24.50;40.80;;;;;;5076513;28;20093;-46
2022/10/12 05:14:18;;;;;;;5.97;0.20;;;24.50;40.70;;;;;;5069937;28;20072;-45
2022/10/12 05:16:45;;;;;;;4.22;0.22;;;24.60;40.60;;;;;;5070325;28;20036;-46
2022/10/12 05:19:12;;;;;;;1.63;0.30;;;24.60;40.40;;;;;;5071623;28;20049;-49
2022/10/12 05:21:39;;;;;;;3.67;0.80;;;24.70;40.30;;;;;;5071406;28;20056;-45
2022/10/12 05:24:08;;;;;;;2.83;0.50;;;24.80;40.30;;;;;;5070925;28;20408;-47
2022/10/12 05:26:35;;;;;;;7.35;0.90;;;24.80;40.10;;;;;;5070786;28;20503;-46
2022/10/12 05:29:02;;;;;;;1.45;0.25;;;24.90;40.10;;;;;;5069850;28;20037;-52
2022/10/12 05:31:29;;;;;;;1.88;0.52;;;24.90;40.00;;;;;;5072313;28;20041;-46
2022/10/12 05:33:56;;;;;;;3.13;0.30;;;24.90;39.90;;;;;;5068683;28;20124;-47
2022/10/12 05:36:23;;;;;;;5.30;0.60;;;25.00;39.90;;;;;;5070590;28;20643;-46
2022/10/12 05:38:50;;;;;;;2.53;0.30;;;25.00;39.80;;;;;;5070163;28;20771;-46
2022/10/12 05:41:19;;;;;;;1.52;0.32;;;25.00;39.70;;;;;;5076414;28;20036;-50
2022/10/12 05:43:46;;;;;;;0.90;0.30;;;25.00;39.70;;;;;;5070537;28;20079;-48
2022/10/12 05:46:13;;;;;;;1.52;0.52;;;25.10;39.70;;;;;;5066898;28;20041;-49
2022/10/12 05:48:40;;;;;;;6.10;0.93;;;25.10;39.70;;;;;;5058943;28;20090;-46
2022/10/12 05:51:07;;;;;;;0.95;0.32;;;25.10;39.70;;;;;;5063957;28;20040;-47
2022/10/12 05:53:34;;;;;;;2.45;0.47;;;25.20;39.80;;;;;;5070281;28;20052;-47
2022/10/12 05:56:02;;;;;;;1.65;0.20;;;25.20;39.70;;;;;;5069715;28;20040;-47
2022/10/12 05:58:30;;;;;;;3.42;0.30;;;25.20;39.70;;;;;;5058552;28;20110;-47
2022/10/12 06:01:05;;;;;;;5.07;0.40;;;25.30;39.70;;;;;;5068325;28;20040;-47
2022/10/12 06:03:32;;;;;;;0.75;0.30;;;25.30;39.60;;;;;;5070770;28;20043;-45
2022/10/12 06:05:59;;;;;;;1.67;0.32;;;25.40;39.60;;;;;;5068439;28;20416;-46
2022/10/12 06:08:26;;;;;;;2.90;0.30;;;25.40;39.60;;;;;;5069959;28;20458;-49
2022/10/12 06:10:53;;;;;;;6.40;0.50;;;25.50;39.60;;;;;;5067750;28;20500;-50
2022/10/12 06:13:20;;;;;;;5.95;2.15;;;25.50;39.40;;;;;;5066899;28;20845;-49
2022/10/12 06:15:49;;;;;;;2.33;0.93;;;25.50;39.20;;;;;;5069177;28;20119;-48
2022/10/12 06:18:17;;;;;;;8.63;0.60;;;25.50;39.10;;;;;;5068719;28;20465;-48
2022/10/12 06:20:47;;;;;;;3.55;0.52;;;25.40;39.10;;;;;;5068609;28;20064;-51
2022/10/12 06:23:14;;;;;;;3.42;0.43;;;25.40;39.00;;;;;;5070561;28;20055;-47
2022/10/12 06:25:41;;;;;;;10.10;1.02;;;25.30;39.00;;;;;;5072057;28;20423;-44
2022/10/12 06:28:09;;;;;;;3.53;0.40;;;25.20;39.10;;;;;;5071544;28;20130;-45
2022/10/12 06:30:36;;;;;;;3.83;0.98;;;25.20;39.20;;;;;;5067466;28;20060;-49
2022/10/12 06:33:04;;;;;;;3.88;0.57;;;25.10;39.30;;;;;;5068695;28;20145;-49
2022/10/12 06:35:31;;;;;;;1.13;0.40;;;25.10;39.60;;;;;;5067947;28;20458;-46
2022/10/12 06:37:58;;;;;;;1.05;0.50;;;25.00;39.50;;;;;;5069017;28;20036;-46
2022/10/12 06:40:25;;;;;;;2.55;0.70;;;25.00;39.70;;;;;;5071957;28;20041;-46
2022/10/12 06:42:52;;;;;;;3.50;0.57;;;24.90;39.70;;;;;;5077716;28;20066;-47
2022/10/12 06:45:20;;;;;;;0.50;0.20;;;24.90;39.90;;;;;;5076685;28;20032;-49
2022/10/12 06:47:47;;;;;;;2.05;0.77;;;24.90;40.00;;;;;;5068071;28;20214;-52
2022/10/12 06:50:15;;;;;;;5.18;0.77;;;24.80;40.10;;;;;;5068081;28;20119;-49
2022/10/12 06:52:43;;;;;;;4.97;0.40;;;24.80;40.10;;;;;;5068213;28;20037;-47
2022/10/12 06:55:11;;;;;;;6.90;1.17;;;24.70;40.10;;;;;;5067967;28;20134;-47
2022/10/12 06:57:38;;;;;;;3.13;0.30;;;24.70;40.30;;;;;;5069075;28;20452;-46
2022/10/12 07:00:07;;;;;;;6.07;0.70;;;24.70;40.50;;;;;;5069141;28;20519;-47
2022/10/12 07:02:35;;;;;;;3.05;0.38;;;24.70;40.90;;;;;;5057692;28;20124;-47
2022/10/12 07:05:02;;;;;;;1.27;0.40;;;24.70;41.00;;;;;;5064879;28;20572;-49
2022/10/12 07:07:32;;;;;;;3.72;0.60;;;24.70;41.10;;;;;;5067494;28;20135;-48
2022/10/12 07:09:59;;;;;;;2.70;0.70;;;24.80;41.30;;;;;;5068854;28;20044;-48
2022/10/12 07:12:27;;;;;;;5.25;0.70;;;24.80;41.30;;;;;;5068441;28;20037;-49
2022/10/12 07:14:54;;;;;;;1.65;0.30;;;24.90;41.20;;;;;;5072397;28;20119;-52
2022/10/12 07:17:22;;;;;;;1.77;0.93;;;25.00;41.00;;;;;;5068020;28;20036;-51
2022/10/12 07:19:49;;;;;;;7.30;0.63;;;25.00;41.50;;;;;;5067773;28;20469;-54
2022/10/12 07:22:16;;;;;;;1.35;0.40;;;25.00;40.70;;;;;;5068398;28;20040;-54
2022/10/12 07:24:44;;;;;;;4.80;1.17;;;25.00;40.60;;;;;;5069257;28;20611;-51
2022/10/12 07:27:11;;;;;;;2.13;0.73;;;25.00;40.60;;;;;;5066767;28;20504;-50
2022/10/12 07:29:39;;;;;;;3.70;0.85;;;25.00;40.60;;;;;;5067985;28;20478;-52
2022/10/12 07:32:07;;;;;;;5.10;0.85;;;25.00;40.50;;;;;;5068406;28;20047;-53
2022/10/12 07:34:34;;;;;;;2.90;0.98;;;25.10;40.60;;;;;;5067264;28;20142;-49
2022/10/12 07:37:01;;;;;;;12.70;2.83;;;25.10;40.60;;;;;;5068388;28;20049;-52
2022/10/12 07:39:28;;;;;;;9.82;2.97;;;25.00;40.60;;;;;;5070719;28;20041;-52
2022/10/12 07:41:57;;;;;;;10.50;1.83;;;25.10;40.70;;;;;;5068358;28;20052;-51
2022/10/12 07:44:24;;;;;;;10.27;2.53;;;25.10;40.60;;;;;;5068407;28;20055;-54
2022/10/12 07:46:51;;;;;;;10.23;3.67;;;25.10;40.60;;;;;;5068319;28;20036;-50
2022/10/12 07:49:18;;;;;;;10.90;1.65;;;25.10;40.60;;;;;;5067516;28;20111;-48
2022/10/12 07:51:46;;;;;;;11.90;1.80;;;25.10;40.60;;;;;;5067679;28;20052;-48
2022/10/12 07:54:14;;;;;;;6.13;2.65;;;25.10;40.50;;;;;;5070434;28;20052;-46
2022/10/12 07:56:41;;;;;;;6.57;2.13;;;25.10;40.30;;;;;;5066666;28;20044;-53
2022/10/12 07:59:09;;;;;;;11.35;2.05;;;25.00;40.20;;;;;;5066166;28;20312;-49
2022/10/12 08:01:36;;;;;;;10.88;1.48;;;25.00;40.30;;;;;;5067857;28;20416;-49
2022/10/12 08:04:04;;;;;;;5.95;1.38;;;25.10;40.20;;;;;;5067600;28;20460;-47
2022/10/12 08:06:32;;;;;;;6.43;1.77;;;25.00;40.20;;;;;;5065714;28;20037;-53
2022/10/12 08:09:00;;;;;;;8.40;1.13;;;25.00;40.30;;;;;;5067722;28;20054;-53
2022/10/12 08:11:28;;;;;;;6.75;2.17;;;25.00;40.20;;;;;;5067404;28;20032;-52
2022/10/12 08:13:55;;;;;;;4.95;2.47;;;25.00;40.30;;;;;;5066807;28;20037;-50
2022/10/12 08:16:24;;;;;;;15.82;1.88;;;25.00;40.20;;;;;;5064049;28;20033;-48
2022/10/12 08:18:51;;;;;;;8.85;3.30;;;25.00;40.40;;;;;;5066769;28;20460;-50
2022/10/12 08:21:19;;;;;;;4.72;0.90;;;25.00;40.60;;;;;;5066954;28;20455;-49
2022/10/12 08:23:46;;;;;;;8.57;1.08;;;24.90;40.50;;;;;;5067190;28;20072;-52
2022/10/12 08:26:14;;;;;;;5.10;1.35;;;24.90;40.60;;;;;;5067664;28;20055;-49
2022/10/12 08:28:41;;;;;;;4.82;0.90;;;24.90;40.70;;;;;;5068048;28;20040;-51
2022/10/12 08:31:09;;;;;;;5.97;1.15;;;24.90;40.70;;;;;;5067547;28;20037;-52
2022/10/12 08:33:38;;;;;;;7.88;1.38;;;24.90;40.70;;;;;;5067534;28;20045;-53
2022/10/12 08:36:06;;;;;;;3.78;1.33;;;24.90;40.70;;;;;;5067846;28;20040;-49
2022/10/12 08:38:35;;;;;;;10.43;1.92;;;24.90;40.70;;;;;;5067591;28;20044;-50
2022/10/12 08:41:11;;;;;;;11.02;1.67;;;24.90;40.70;;;;;;5067940;28;20044;-49
2022/10/12 08:43:51;;;;;;;8.07;1.35;;;24.90;40.80;;;;;;5067800;28;20047;-48
2022/10/12 08:46:20;;;;;;;5.82;1.65;;;24.90;40.70;;;;;;5067081;28;20046;-49
2022/10/12 08:48:51;;;;;;;6.97;1.25;;;24.90;40.80;;;;;;5067250;28;20040;-49
2022/10/12 08:51:22;;;;;;;4.85;1.30;;;24.90;40.90;;;;;;5067829;28;20131;-49
2022/10/12 08:53:55;;;;;;;5.97;0.90;;;24.90;40.90;;;;;;5066809;28;20576;-48
2022/10/12 08:56:24;;;;;;;4.32;1.63;;;24.90;40.90;;;;;;5047155;28;20045;-48
2022/10/12 08:58:52;;;;;;;4.45;0.98;;;24.90;41.00;;;;;;5040925;28;20037;-50
2022/10/12 09:01:27;;;;;;;6.65;1.15;;;24.90;41.10;;;;;;5041488;28;20053;-48
2022/10/12 09:04:10;;;;;;;7.47;1.83;;;24.90;40.80;;;;;;5043352;28;20037;-48
2022/10/12 09:06:42;;;;;;;8.75;1.50;;;24.90;40.70;;;;;;5042503;28;20025;-47
2022/10/12 09:09:31;;;;;;;7.13;1.23;;;24.90;40.80;;;;;;5046624;28;20099;-47
2022/10/12 09:12:13;;;;;;;3.63;1.55;;;24.90;40.70;;;;;;5043668;28;20518;-46
2022/10/12 09:14:42;;;;;;;3.05;0.98;;;24.90;40.80;;;;;;5041567;28;20555;-46
2022/10/12 09:17:23;;;;;;;6.60;2.00;;;24.90;40.80;;;;;;5046994;28;20049;-47
2022/10/12 09:20:00;;;;;;;7.03;1.05;;;24.90;40.80;;;;;;5047082;28;20051;-46
2022/10/12 09:22:29;;;;;;;5.60;1.55;;;24.90;40.90;;;;;;5047014;28;20045;-46
2022/10/12 09:24:58;;;;;;;4.55;1.08;;;25.00;40.90;;;;;;5045928;28;20544;-45
2022/10/12 09:27:30;;;;;;;10.98;1.15;;;25.00;41.00;;;;;;5046628;28;20033;-47
2022/10/12 09:30:01;;;;;;;3.42;1.23;;;25.00;41.00;;;;;;5046235;28;20583;-49
2022/10/12 09:32:53;;;;;;;5.05;2.22;;;25.00;41.00;;;;;;5047129;28;20110;-51
2022/10/12 09:35:21;;;;;;;5.40;1.30;;;25.10;41.20;;;;;;5043075;28;20045;-54
2022/10/12 09:37:52;;;;;;;7.53;1.48;;;25.00;41.10;;;;;;5046403;28;20049;-46
2022/10/12 09:40:22;;;;;;;8.35;2.08;;;25.10;41.10;;;;;;5043296;28;20129;-47
2022/10/12 09:42:50;;;;;;;5.90;1.35;;;25.10;41.20;;;;;;5043580;28;20132;-48
2022/10/12 09:45:19;;;;;;;5.22;1.40;;;25.20;41.30;;;;;;5046219;28;20058;-49
2022/10/12 09:48:08;;;;;;;6.97;1.50;;;25.20;41.30;;;;;;5046530;28;20537;-49
2022/10/12 09:50:42;;;;;;;5.32;1.90;;;25.30;41.10;;;;;;5046662;28;20068;-49
2022/10/12 09:53:26;;;;;;;3.08;1.88;;;25.30;41.30;;;;;;5040647;28;20056;-47
2022/10/12 09:55:55;;;;;;;4.65;1.73;;;25.30;41.20;;;;;;5045982;28;20048;-48
2022/10/12 09:58:23;;;;;;;3.90;1.65;;;25.30;41.30;;;;;;5049061;28;20037;-52
2022/10/12 10:01:18;;;;;;;6.20;1.67;;;25.30;41.20;;;;;;5050395;28;20045;-47
2022/10/12 10:03:46;;;;;;;6.85;1.70;;;25.40;41.20;;;;;;5044722;28;20049;-46
2022/10/12 10:06:15;;;;;;;5.50;0.85;;;25.40;41.20;;;;;;5049334;28;20132;-44
2022/10/12 10:08:44;;;;;;;3.33;1.33;;;25.40;41.30;;;;;;5043652;28;20037;-47
2022/10/12 10:11:16;;;;;;;8.75;2.08;;;25.50;41.20;;;;;;5043607;28;21003;-47
2022/10/12 10:13:49;;;;;;;9.68;1.65;;;25.50;41.20;;;;;;5043089;28;20073;-46
2022/10/12 10:16:17;;;;;;;4.93;1.08;;;25.60;41.10;;;;;;5041296;28;20505;-48
2022/10/12 10:18:49;;;;;;;7.55;2.13;;;25.60;41.10;;;;;;5049704;28;20047;-45
2022/10/12 10:21:26;;;;;;;5.90;1.95;;;25.70;41.70;;;;;;5049902;28;20045;-45
2022/10/12 10:23:56;;;;;;;2.83;0.63;;;25.70;41.00;;;;;;5044586;28;20132;-47
2022/10/12 10:26:24;;;;;;;5.88;1.92;;;25.70;41.00;;;;;;5046610;28;20044;-45
2022/10/12 10:28:56;;;;;;;3.97;1.27;;;25.80;41.00;;;;;;5049849;28;20041;-46
2022/10/12 10:31:26;;;;;;;4.95;0.95;;;25.80;40.90;;;;;;5046934;28;20061;-48
2022/10/12 10:34:13;;;;;;;3.13;0.77;;;25.90;41.00;;;;;;5050108;28;20041;-45
2022/10/12 10:36:44;;;;;;;;;;;26.00;41.00;;;;;;5043932;28;20060;-46
2022/10/12 10:39:19;;;;;;;2.88;0.70;;;25.90;41.00;;;;;;5047427;28;19925;-56
2022/10/12 10:41:47;;;;;;;10.50;0.80;;;26.00;41.20;;;;;;5047696;28;20536;-44
2022/10/12 10:44:26;;;;;;;2.45;0.50;;;26.00;41.40;;;;;;5049260;28;20044;-44
2022/10/12 10:46:56;;;;;;;3.33;0.55;;;26.00;41.50;;;;;;5049819;28;20124;-44
2022/10/12 10:49:29;;;;;;;6.32;0.77;;;26.00;41.60;;;;;;5046477;28;20072;-46
2022/10/12 10:51:59;;;;;;;9.98;1.15;;;26.10;41.70;;;;;;5054304;28;20164;-49
2022/10/12 10:54:29;;;;;;;5.30;1.05;;;26.10;41.80;;;;;;5049172;28;20501;-50
2022/10/12 10:57:01;;;;;;;1.15;0.95;;;26.10;41.80;;;;;;5050099;28;20048;-51
2022/10/12 10:59:46;;;;;;;3.15;0.40;;;26.20;41.90;;;;;;5049557;28;20049;-49
2022/10/12 11:02:23;;;;;;;1.98;0.73;;;26.20;41.90;;;;;;5049239;28;20049;-50
2022/10/12 11:04:56;;;;;;;5.35;0.85;;;26.20;41.90;;;;;;5049257;28;20119;-51
2022/10/12 11:07:30;;;;;;;4.10;0.65;;;26.20;41.90;;;;;;5048880;28;20127;-53
2022/10/12 11:10:00;;;;;;;4.55;1.63;;;26.30;42.00;;;;;;5045630;28;20080;-51
2022/10/12 11:12:31;;;;;;;11.23;1.42;;;26.30;41.90;;;;;;5042576;28;20125;-51
2022/10/12 11:15:07;;;;;;;5.35;1.67;;;26.30;41.80;;;;;;5049347;28;20041;-51
2022/10/12 11:17:41;;;;;;;5.03;0.90;;;26.30;41.70;;;;;;5047658;28;20055;-49
2022/10/12 11:20:34;;;;;;;2.90;0.45;;;26.40;41.60;;;;;;5046385;28;20543;-48
2022/10/12 11:23:13;;;;;;;2.20;1.00;;;26.40;41.60;;;;;;5049238;28;20045;-47
2022/10/12 11:25:44;;;;;;;4.22;2.03;;;26.40;41.60;;;;;;5048552;28;20037;-46
2022/10/12 11:28:15;;;;;;;2.90;0.65;;;26.40;41.50;;;;;;5049107;28;20063;-51
2022/10/12 11:30:49;;;;;;;5.22;1.17;;;26.40;41.40;;;;;;5049371;28;20037;-48
2022/10/12 11:33:22;;;;;;;3.00;0.70;;;26.40;41.30;;;;;;5047600;28;20561;-49
2022/10/12 11:35:50;;;;;;;9.30;0.82;;;26.40;41.20;;;;;;5047516;28;20044;-47
2022/10/12 11:38:22;;;;;;;7.45;0.70;;;26.50;41.30;;;;;;5037433;28;20037;-49
2022/10/12 11:40:53;;;;;;;4.80;0.93;;;26.40;41.10;;;;;;5044377;28;20056;-48
2022/10/12 11:43:22;;;;;;;4.03;0.65;;;26.40;41.10;;;;;;5044566;28;20644;-48
2022/10/12 11:45:52;;;;;;;4.93;0.68;;;26.40;41.00;;;;;;5048747;28;20076;-48
2022/10/12 11:48:23;;;;;;;5.05;1.13;;;26.50;41.00;;;;;;5054279;28;20044;-46
2022/10/12 11:50:51;;;;;;;6.70;1.20;;;26.40;41.00;;;;;;5048247;28;20128;-47
2022/10/12 11:53:26;;;;;;;18.52;1.75;;;26.40;41.80;;;;;;5048198;28;20041;-54
2022/10/12 11:56:04;;;;;;;11.70;2.20;;;26.50;42.60;;;;;;5047800;28;20128;-51
2022/10/12 11:58:35;;;;;;;7.45;0.90;;;26.40;42.90;;;;;;5048206;28;20055;-53
2022/10/12 12:01:28;;;;;;;9.07;1.10;;;26.40;42.90;;;;;;5048707;28;20127;-54
2022/10/12 12:04:13;;;;;;;16.95;1.83;;;26.50;42.80;;;;;;5048405;28;20045;-54
2022/10/12 12:06:52;;;;;;;9.70;1.17;;;26.40;42.50;;;;;;5048750;28;20073;-53
2022/10/12 12:09:34;;;;;;;4.25;0.60;;;26.50;42.40;;;;;;5048415;28;20382;-54
2022/10/12 12:12:23;;;;;;;6.25;1.48;;;26.40;42.20;;;;;;5044153;28;20098;-52
2022/10/12 12:15:18;;;;;;;5.32;0.32;;;26.40;42.00;;;;;;5046612;28;20091;-55
2022/10/12 12:18:04;;;;;;;6.35;1.38;;;26.50;41.90;;;;;;5042043;28;20056;-54
2022/10/12 12:21:00;;;;;;;4.57;0.88;;;26.40;41.70;;;;;;5043911;28;20055;-54
2022/10/12 12:23:32;;;;;;;4.90;1.50;;;26.40;41.70;;;;;;5048236;28;20041;-52
2022/10/12 12:26:18;;;;;;;6.82;0.75;;;26.40;41.80;;;;;;5040260;28;20049;-57
2022/10/12 12:28:48;;;;;;;8.50;1.33;;;26.40;41.80;;;;;;5033342;28;20128;-50
2022/10/12 12:31:17;;;;;;;5.13;0.98;;;26.40;42.00;;;;;;5042615;28;20041;-51
2022/10/12 12:33:47;;;;;;;3.72;0.93;;;26.40;42.20;;;;;;5046625;28;20658;-51
2022/10/12 12:36:27;;;;;;;5.82;1.50;;;26.40;42.40;;;;;;5047299;28;20060;-50
2022/10/12 12:38:54;;;;;;;7.57;0.50;;;26.40;42.40;;;;;;5046914;28;20539;-55
2022/10/12 12:41:27;;;;;;;6.40;2.13;;;26.40;42.50;;;;;;5047403;28;20040;-51
2022/10/12 12:43:59;;;;;;;7.10;1.42;;;26.50;43.40;;;;;;5047445;28;20132;-53
2022/10/12 12:47:08;;;;;;;3.72;0.60;;;26.50;43.80;;;;;;5047054;28;20076;-57
2022/10/12 12:49:44;;;;;;;5.20;0.88;;;26.60;43.90;;;;;;5046301;28;20048;-57
2022/10/12 12:52:13;;;;;;;;;;;26.60;44.20;;;;;;5047385;28;20525;-54
2022/10/12 12:54:47;;;;;;;2.70;0.45;;;26.70;44.00;;;;;;5047859;28;19925;-53
2022/10/12 12:57:42;;;;;;;4.90;0.63;;;26.70;44.20;;;;;;5039960;28;20099;-55
2022/10/12 13:00:20;;;;;;;5.38;0.40;;;26.70;44.10;;;;;;5045487;28;20036;-51
2022/10/12 13:03:14;;;;;;;1.95;0.40;;;26.80;44.30;;;;;;5044686;28;20166;-55
2022/10/12 13:06:15;;;;;;;8.43;0.65;;;26.80;44.30;;;;;;5043760;28;20036;-53